Christos Vi — SVA4023 — position and weather

sailwx.info

Track history (hours):
 
Tides and Currents Weather Stations Pressure Air Temp Water Temp Dewpoint Dewpoint Depression Visibility Wind Speed Wind Dir Waves Ship Positions

Christos Vi

Last reported at 2017-Sep-19 19:05 UTC. Time now 2017-Sep-20 00:15 UTC.
Position N 38°02' E 023°30'.

Length 18 m; draft 2.5 m.

Type: Tug. MMSI: 239564600.

Date/timePositionNaut miles runAvg speedWind from/ knotsBaromVisibWave heightAir tempDewpointWater temp
2017-Sep-19 19:05N 38°02' E 023°30'0 3.7
2017-Sep-19 19:00N 38°02' E 023°30'4 8.6
2017-Sep-19 18:30N 37°58' E 023°33'2 4.0
2017-Sep-19 18:00N 37°57' E 023°35'4 8.7
2017-Sep-19 17:30N 37°53' E 023°34'2 3.4
2017-Sep-19 17:00N 37°54' E 023°35'1 2.7
2017-Sep-19 16:30N 37°55' E 023°36'2 3.3
2017-Sep-19 15:59N 37°57' E 023°35'3 5.8
2017-Sep-19 15:27N 37°60' E 023°33'2 5.0
2017-Sep-19 15:00N 38°02' E 023°34'0 0.1
2017-Sep-19 11:58N 38°02' E 023°34'1 2.3
2017-Sep-19 11:30N 38°02' E 023°36'0 0.3
2017-Sep-19 10:45N 38°01' E 023°35'0 0.7
2017-Sep-19 10:29N 38°02' E 023°35'0 0.6
2017-Sep-19 09:59N 38°02' E 023°36'0 0.0
2017-Sep-19 09:29N 38°02' E 023°36'0 0.0
2017-Sep-19 08:59N 38°02' E 023°36'0 0.0
2017-Sep-19 08:29N 38°02' E 023°36'0 0.0
2017-Sep-19 07:53N 38°02' E 023°36'0 0.0
2017-Sep-19 07:26N 38°02' E 023°36'0 0.0
2017-Sep-19 06:59N 38°02' E 023°36'0 0.0
2017-Sep-19 06:29N 38°02' E 023°36'0 0.0
2017-Sep-19 05:59N 38°02' E 023°36'0 0.0
2017-Sep-19 05:29N 38°02' E 023°36'0 0.0
2017-Sep-19 04:59N 38°02' E 023°36'0 0.0
2017-Sep-19 04:29N 38°02' E 023°36'0 0.0
2017-Sep-19 03:59N 38°02' E 023°36'0 0.0
2017-Sep-19 03:29N 38°02' E 023°36'0 0.0
2017-Sep-19 02:59N 38°02' E 023°36'0 0.0
2017-Sep-19 02:29N 38°02' E 023°36'0 0.0
2017-Sep-19 01:59N 38°02' E 023°36'0 0.0
2017-Sep-19 01:29N 38°02' E 023°36'0 0.0
2017-Sep-19 00:56N 38°02' E 023°36'0 0.0
2017-Sep-19 00:29N 38°02' E 023°36'0 0.0
2017-Sep-18 23:59N 38°02' E 023°36'0 0.0
2017-Sep-18 23:29N 38°02' E 023°36'0 0.0
2017-Sep-18 22:56N 38°02' E 023°36'0 0.0
2017-Sep-18 22:29N 38°02' E 023°36'0 0.0
2017-Sep-18 21:59N 38°02' E 023°36'0 0.1
2017-Sep-18 21:24N 38°02' E 023°36'0 0.2
2017-Sep-18 21:00N 38°02' E 023°36'0 0.0
2017-Sep-18 20:27N 38°02' E 023°36'0 0.0
2017-Sep-18 20:00N 38°02' E 023°36'0 0.0
2017-Sep-18 19:30N 38°02' E 023°36'0 0.0
2017-Sep-18 19:00N 38°02' E 023°36'0 0.1
2017-Sep-18 18:23N 38°02' E 023°36'0 0.1
2017-Sep-18 17:58N 38°02' E 023°36'0 0.0
2017-Sep-18 17:28N 38°02' E 023°36'0 0.0
2017-Sep-18 16:58N 38°02' E 023°36'0 0.0
2017-Sep-18 16:28N 38°02' E 023°36'0 0.0
2017-Sep-18 15:58N 38°02' E 023°36'0 0.0
2017-Sep-18 15:30N 38°02' E 023°36'1 1.7
2017-Sep-18 14:59N 38°01' E 023°35'1 1.8
2017-Sep-18 14:29N 38°02' E 023°36'0 0.0
2017-Sep-18 13:59N 38°02' E 023°36'0 0.0
2017-Sep-18 13:29N 38°02' E 023°36'0 0.0
2017-Sep-18 12:56N 38°02' E 023°36'0 0.0
2017-Sep-18 12:29N 38°02' E 023°36'3 5.8
2017-Sep-18 12:00N 38°02' E 023°32'0 0.0
2017-Sep-18 11:21N 38°02' E 023°32'0 0.0
2017-Sep-18 10:54N 38°02' E 023°32'0 0.0
2017-Sep-18 10:30N 38°02' E 023°32'3 5.1
2017-Sep-18 09:58N 38°02' E 023°36'0 0.1
2017-Sep-18 09:25N 38°02' E 023°36'0 0.0
2017-Sep-18 08:58N 38°02' E 023°36'0 0.0
2017-Sep-18 08:28N 38°02' E 023°36'0 0.0
2017-Sep-18 07:58N 38°02' E 023°36'0 0.0
2017-Sep-18 07:28N 38°02' E 023°36'0 0.0
2017-Sep-18 06:58N 38°02' E 023°36'0 0.0
2017-Sep-18 06:28N 38°02' E 023°36'0 0.0
2017-Sep-18 05:55N 38°02' E 023°36'0 0.0
2017-Sep-18 05:25N 38°02' E 023°36'0 0.0
2017-Sep-18 04:58N 38°02' E 023°36'0 0.0
2017-Sep-18 04:28N 38°02' E 023°36'0 0.0
2017-Sep-18 03:58N 38°02' E 023°36'0 0.0
2017-Sep-18 03:25N 38°02' E 023°36'0 0.0
2017-Sep-18 02:58N 38°02' E 023°36'0 0.0
2017-Sep-18 02:28N 38°02' E 023°36'0 0.0
2017-Sep-18 01:58N 38°02' E 023°36'0 0.0
2017-Sep-18 01:22N 38°02' E 023°36'0 0.0
2017-Sep-18 00:58N 38°02' E 023°36'0 0.0
2017-Sep-18 00:25N 38°02' E 023°36'0 0.0
2017-Sep-17 23:58N 38°02' E 023°36'0 0.0
2017-Sep-17 23:28N 38°02' E 023°36'0 0.0
2017-Sep-17 22:58N 38°02' E 023°36'0 0.0
2017-Sep-17 22:25N 38°02' E 023°36'0 0.1
2017-Sep-17 21:57N 38°02' E 023°36'0 0.1
2017-Sep-17 21:30N 38°02' E 023°36'0 0.0
2017-Sep-17 20:59N 38°02' E 023°36'0 0.0
2017-Sep-17 20:30N 38°02' E 023°36'0 0.0
2017-Sep-17 19:59N 38°02' E 023°36'0 0.0
2017-Sep-17 19:27N 38°02' E 023°36'0 0.0
2017-Sep-17 19:00N 38°02' E 023°36'0 0.0
2017-Sep-17 18:27N 38°02' E 023°36'0 0.0
2017-Sep-17 17:54N 38°02' E 023°36'0 0.0
2017-Sep-17 17:30N 38°02' E 023°36'0 0.0
2017-Sep-17 16:56N 38°02' E 023°36'0 0.0
2017-Sep-17 16:29N 38°02' E 023°36'0 0.2
2017-Sep-17 15:54N 38°02' E 023°36'0 0.3
2017-Sep-17 15:25N 38°02' E 023°36'0 0.0
2017-Sep-17 14:58N 38°02' E 023°36'0 0.0
2017-Sep-17 14:28N 38°02' E 023°36'0 0.0
2017-Sep-17 13:55N 38°02' E 023°36'0 0.0
2017-Sep-17 13:28N 38°02' E 023°36'0 0.0
2017-Sep-17 12:58N 38°02' E 023°36'0 0.0
2017-Sep-17 12:28N 38°02' E 023°36'0 0.0
2017-Sep-17 11:52N 38°02' E 023°36'0 0.0
2017-Sep-17 11:25N 38°02' E 023°36'0 0.0
2017-Sep-17 10:55N 38°02' E 023°36'0 0.0
2017-Sep-17 10:28N 38°02' E 023°36'0 0.0
2017-Sep-17 09:58N 38°02' E 023°36'0 0.0
2017-Sep-17 09:28N 38°02' E 023°36'0 0.0
2017-Sep-17 08:58N 38°02' E 023°36'0 0.0
2017-Sep-17 08:28N 38°02' E 023°36'0 0.0
2017-Sep-17 07:58N 38°02' E 023°36'0 0.0
2017-Sep-17 07:28N 38°02' E 023°36'0 0.0
2017-Sep-17 06:58N 38°02' E 023°36'0 0.0
2017-Sep-17 06:22N 38°02' E 023°36'0 0.0
2017-Sep-17 05:58N 38°02' E 023°36'0 0.0
2017-Sep-17 05:28N 38°02' E 023°36'0 0.0
2017-Sep-17 04:58N 38°02' E 023°36'0 0.0
2017-Sep-17 04:28N 38°02' E 023°36'0 0.0
2017-Sep-17 03:55N 38°02' E 023°36'0 0.0
2017-Sep-17 03:28N 38°02' E 023°36'0 0.0
2017-Sep-17 02:58N 38°02' E 023°36'0 0.0
2017-Sep-17 02:28N 38°02' E 023°36'0 0.0
2017-Sep-17 01:58N 38°02' E 023°36'0 0.0
2017-Sep-17 01:28N 38°02' E 023°36'0 0.0
2017-Sep-17 00:58N 38°02' E 023°36'0 0.0
2017-Sep-17 00:25N 38°02' E 023°36'0 0.0
2017-Sep-16 23:58N 38°02' E 023°36'0 0.0
2017-Sep-16 23:28N 38°02' E 023°36'0 0.0
2017-Sep-16 22:58N 38°02' E 023°36'0 0.7
2017-Sep-16 22:26N 38°02' E 023°35'0 0.7
2017-Sep-16 21:56N 38°02' E 023°36'0 0.2
2017-Sep-16 21:30N 38°02' E 023°36'0 0.2
2017-Sep-16 21:00N 38°02' E 023°36'0 0.0
2017-Sep-16 20:30N 38°02' E 023°36'0 0.0
2017-Sep-16 20:00N 38°02' E 023°36'0 0.0
2017-Sep-16 19:30N 38°02' E 023°36'0 0.0
2017-Sep-16 18:57N 38°02' E 023°36'0 0.0
2017-Sep-16 18:30N 38°02' E 023°36'0 0.0
2017-Sep-16 18:00N 38°02' E 023°36'0 0.0
2017-Sep-16 17:30N 38°02' E 023°36'0 0.0
2017-Sep-16 13:58N 38°02' E 023°36'0 0.0
2017-Sep-16 13:25N 38°02' E 023°36'0 0.0
2017-Sep-16 12:55N 38°02' E 023°36'0 0.0
2017-Sep-16 12:28N 38°02' E 023°36'0 0.0
2017-Sep-16 11:52N 38°02' E 023°36'0 0.0
2017-Sep-16 11:28N 38°02' E 023°36'0 0.0
2017-Sep-16 10:58N 38°02' E 023°36'0 0.0
2017-Sep-16 10:25N 38°02' E 023°36'0 0.0
2017-Sep-16 09:58N 38°02' E 023°36'0 0.0
2017-Sep-16 09:28N 38°02' E 023°36'0 0.0
2017-Sep-16 08:55N 38°02' E 023°36'0 0.0
2017-Sep-16 08:28N 38°02' E 023°36'0 0.0
2017-Sep-16 08:00N 38°02' E 023°36'0 0.8
2017-Sep-16 07:21N 38°01' E 023°35'0 1.4
2017-Sep-16 07:00N 38°02' E 023°36'0 0.1
2017-Sep-16 06:30N 38°02' E 023°36'0 0.0
2017-Sep-16 06:00N 38°02' E 023°36'0 0.0
2017-Sep-16 05:30N 38°02' E 023°36'0 0.0
2017-Sep-16 04:57N 38°02' E 023°36'0 0.0
2017-Sep-16 04:27N 38°02' E 023°36'0 0.0
2017-Sep-16 03:51N 38°02' E 023°36'0 0.0
2017-Sep-16 03:30N 38°02' E 023°36'0 0.0
2017-Sep-16 03:00N 38°02' E 023°36'0 0.0
2017-Sep-16 02:30N 38°02' E 023°36'0 0.0
2017-Sep-16 02:00N 38°02' E 023°36'0 0.0
2017-Sep-16 01:30N 38°02' E 023°36'0 0.0
2017-Sep-16 01:00N 38°02' E 023°36'0 0.0
2017-Sep-16 00:30N 38°02' E 023°36'0 0.0
2017-Sep-16 00:00N 38°02' E 023°36'0 0.0
2017-Sep-15 23:30N 38°02' E 023°36'0 0.0
2017-Sep-15 23:00N 38°02' E 023°36'0 0.0
2017-Sep-15 22:30N 38°02' E 023°36'0 0.0
2017-Sep-15 22:00N 38°02' E 023°36'0 0.0
2017-Sep-15 21:30N 38°02' E 023°36'0 0.0
2017-Sep-15 21:00N 38°02' E 023°36'0 0.0
2017-Sep-15 20:30N 38°02' E 023°36'0 0.0
2017-Sep-15 20:00N 38°02' E 023°36'0 0.0
2017-Sep-15 19:27N 38°02' E 023°36'0 0.0
2017-Sep-15 19:00N 38°02' E 023°36'0 0.0
2017-Sep-15 18:30N 38°02' E 023°36'0 0.4
2017-Sep-15 17:56N 38°02' E 023°35'0 0.5
2017-Sep-15 17:30N 38°02' E 023°36'0 0.0
2017-Sep-15 16:57N 38°02' E 023°36'0 0.2
2017-Sep-15 16:29N 38°02' E 023°36'0 0.1
2017-Sep-15 15:50N 38°02' E 023°36'0 0.0
2017-Sep-15 15:26N 38°02' E 023°36'0 0.0
2017-Sep-15 14:59N 38°02' E 023°36'0 0.0
2017-Sep-15 14:29N 38°02' E 023°36'0 0.0
2017-Sep-15 13:56N 38°02' E 023°36'0 0.0
2017-Sep-15 13:29N 38°02' E 023°36'0 0.0
2017-Sep-15 12:56N 38°02' E 023°36'0 0.1
2017-Sep-15 12:23N 38°02' E 023°36'0 0.1
2017-Sep-15 11:55N 38°02' E 023°36'0 0.0
2017-Sep-15 11:22N 38°02' E 023°36'0 0.0
2017-Sep-15 10:52N 38°02' E 023°36'0 0.0
2017-Sep-15 10:30N 38°02' E 023°36'0 0.0
2017-Sep-15 10:00N 38°02' E 023°36'0 0.0
2017-Sep-15 09:30N 38°02' E 023°36'0 0.0
2017-Sep-15 09:00N 38°02' E 023°36'0 0.0
2017-Sep-15 08:30N 38°02' E 023°36'0 0.0
2017-Sep-15 08:00N 38°02' E 023°36'0 0.0
2017-Sep-15 07:30N 38°02' E 023°36'0 0.0
2017-Sep-15 07:00N 38°02' E 023°36'0 0.0
2017-Sep-15 06:30N 38°02' E 023°36'0 0.0
2017-Sep-15 05:57N 38°02' E 023°36'0 0.6
2017-Sep-15 05:30N 38°02' E 023°35'0 0.0
2017-Sep-14 19:16N 38°02' E 023°36'0 0.0
2017-Sep-14 18:52N 38°02' E 023°36'0 0.0
2017-Sep-14 18:22N 38°02' E 023°36'0 0.0
2017-Sep-14 17:58N 38°02' E 023°36'0 0.0
2017-Sep-14 14:18N 38°02' E 023°36'0 0.2
2017-Sep-14 14:00N 38°02' E 023°36'0 0.9
2017-Sep-14 13:30N 38°02' E 023°35'4 6.2
2017-Sep-14 12:53N 38°02' E 023°30'0 0.5
2017-Sep-14 12:22N 38°02' E 023°31'0 0.2
2017-Sep-14 12:00N 38°02' E 023°31'0 0.3
2017-Sep-14 11:30N 38°02' E 023°31'0 0.7
2017-Sep-14 10:50N 38°02' E 023°30'0 0.0
2017-Sep-14 10:26N 38°02' E 023°30'0 0.0
2017-Sep-14 09:29N 38°02' E 023°30'0 0.4
2017-Sep-14 08:59N 38°02' E 023°31'2 4.6
2017-Sep-14 08:29N 38°02' E 023°33'2 3.8
2017-Sep-14 07:59N 38°02' E 023°36'0 0.0
2017-Sep-14 07:26N 38°02' E 023°36'0 0.0
2017-Sep-14 06:59N 38°02' E 023°36'0 0.0
2017-Sep-14 06:29N 38°02' E 023°36'0 0.0
2017-Sep-14 05:59N 38°02' E 023°36'4 0.3
2017-Sep-13 15:24N 37°58' E 023°35'2 2.0
2017-Sep-13 14:26N 37°56' E 023°37'4 7.6
2017-Sep-13 13:52N 37°60' E 023°33'3 5.3
2017-Sep-13 13:21N 38°02' E 023°36'3 9.4
2017-Sep-13 13:00N 38°02' E 023°31'1 1.5
2017-Sep-13 12:30N 38°02' E 023°31'0 0.7
2017-Sep-13 12:00N 38°02' E 023°30'0 0.4
2017-Sep-13 11:30N 38°02' E 023°31'1 0.4
2017-Sep-13 10:18N 38°02' E 023°30'0 0.0
2017-Sep-13 09:54N 38°02' E 023°30'0 0.0
2017-Sep-13 09:11N 38°02' E 023°30'0 1.2
2017-Sep-13 08:56N 38°02' E 023°31'1 2.0
2017-Sep-13 08:30N 38°02' E 023°31'3 6.1
2017-Sep-13 07:57N 38°02' E 023°36'0 0.0
2017-Sep-12 21:59N 38°02' E 023°36'0 0.0
2017-Sep-12 21:29N 38°02' E 023°36'0 0.0
2017-Sep-12 20:59N 38°02' E 023°36'0 0.0
2017-Sep-12 20:29N 38°02' E 023°36'0 0.0
2017-Sep-12 19:59N 38°02' E 023°36'0 0.0
2017-Sep-12 19:23N 38°02' E 023°36'0 0.0
2017-Sep-12 18:53N 38°02' E 023°36'0 0.0
2017-Sep-12 18:26N 38°02' E 023°36'0 0.0
2017-Sep-12 17:44N 38°02' E 023°36'0 0.0
2017-Sep-12 17:02N 38°02' E 023°36'0 0.0
2017-Sep-12 16:59N 38°02' E 023°36'0 0.0
2017-Sep-12 16:29N 38°02' E 023°36'0 0.0
2017-Sep-12 15:59N 38°02' E 023°36'0 0.0
2017-Sep-12 13:32N 38°02' E 023°36'0 0.0
2017-Sep-12 12:50N 38°02' E 023°36'0 0.0
2017-Sep-12 12:30N 38°02' E 023°36'0 0.0
2017-Sep-12 12:00N 38°02' E 023°36'0 0.0
2017-Sep-12 11:22N 38°02' E 023°36'0 0.0
2017-Sep-12 11:01N 38°02' E 023°36'0 0.0
2017-Sep-12 10:28N 38°02' E 023°36'0 0.0
2017-Sep-12 10:01N 38°02' E 023°36'0 0.0
2017-Sep-12 09:16N 38°02' E 023°36'0 0.4
2017-Sep-12 09:00N 38°02' E 023°36'0 0.1
2017-Sep-12 08:24N 38°02' E 023°36'0 0.1
2017-Sep-12 07:58N 38°02' E 023°36'0 0.0
2017-Sep-12 07:28N 38°02' E 023°36'0 0.0
2017-Sep-12 06:58N 38°02' E 023°36'0 0.0
2017-Sep-12 06:28N 38°02' E 023°36'0 0.0
2017-Sep-12 05:55N 38°02' E 023°36'0 0.2
2017-Sep-12 05:29N 38°02' E 023°36'0 0.1
2017-Sep-12 05:00N 38°02' E 023°36'0 0.0
2017-Sep-12 04:30N 38°02' E 023°36'0 0.0
2017-Sep-12 03:57N 38°02' E 023°36'0 0.0
2017-Sep-12 03:24N 38°02' E 023°36'0 0.0
2017-Sep-12 02:54N 38°02' E 023°36'0 0.0
2017-Sep-12 02:30N 38°02' E 023°36'0 0.0
2017-Sep-12 02:00N 38°02' E 023°36'0 0.0
2017-Sep-12 01:30N 38°02' E 023°36'0 0.0
2017-Sep-12 01:00N 38°02' E 023°36'0 0.0
2017-Sep-12 00:30N 38°02' E 023°36'0 0.0
2017-Sep-12 00:00N 38°02' E 023°36'0 0.0
2017-Sep-11 23:27N 38°02' E 023°36'0 0.0
2017-Sep-11 23:00N 38°02' E 023°36'0 0.0
2017-Sep-11 22:27N 38°02' E 023°36'0 0.0
2017-Sep-11 21:54N 38°02' E 023°36'0 0.0
2017-Sep-11 21:24N 38°02' E 023°36'0 0.0
2017-Sep-11 21:00N 38°02' E 023°36'0 0.0
2017-Sep-11 20:30N 38°02' E 023°36'0 0.1
2017-Sep-11 19:59N 38°02' E 023°36'0 0.1
2017-Sep-11 19:29N 38°02' E 023°36'0 0.0
2017-Sep-11 18:59N 38°02' E 023°36'0 0.0
2017-Sep-11 18:26N 38°02' E 023°36'0 0.0
2017-Sep-11 17:56N 38°02' E 023°36'0 0.0
2017-Sep-11 17:29N 38°02' E 023°36'0 0.0
2017-Sep-11 16:47N 38°02' E 023°36'0 0.7
2017-Sep-11 16:29N 38°02' E 023°35'0 0.4
2017-Sep-11 16:00N 38°02' E 023°36'0 0.0
2017-Sep-11 15:20N 38°02' E 023°36'0 0.8
2017-Sep-11 14:55N 38°01' E 023°36'0 0.8
2017-Sep-11 14:30N 38°02' E 023°36'0 0.0
2017-Sep-11 13:24N 38°02' E 023°36'0 0.0
2017-Sep-11 12:57N 38°02' E 023°36'0 0.0
2017-Sep-11 12:00N 38°02' E 023°36'0 0.0
2017-Sep-11 11:27N 38°02' E 023°36'0 0.0
2017-Sep-11 10:54N 38°02' E 023°36'0 0.0
2017-Sep-11 10:30N 38°02' E 023°36'0 0.0
2017-Sep-11 09:54N 38°02' E 023°36'0 0.0
2017-Sep-11 09:27N 38°02' E 023°36'0 0.0
2017-Sep-11 09:00N 38°02' E 023°36'0 0.0
2017-Sep-11 08:30N 38°02' E 023°36'0 0.0
2017-Sep-11 08:00N 38°02' E 023°36'0 0.0
2017-Sep-11 07:30N 38°02' E 023°36'0 0.0
2017-Sep-11 07:00N 38°02' E 023°36'0 0.0
2017-Sep-11 06:27N 38°02' E 023°36'0 0.0
2017-Sep-11 05:54N 38°02' E 023°36'0 0.0
2017-Sep-11 05:30N 38°02' E 023°36'0 0.0
2017-Sep-11 05:00N 38°02' E 023°36'0 0.0
2017-Sep-11 04:30N 38°02' E 023°36'0 0.0
2017-Sep-11 04:00N 38°02' E 023°36'0 0.0
2017-Sep-11 03:30N 38°02' E 023°36'0 0.0
2017-Sep-11 03:00N 38°02' E 023°36'0 0.0
2017-Sep-11 02:30N 38°02' E 023°36'0 0.0
2017-Sep-11 02:00N 38°02' E 023°36'0 0.0
2017-Sep-11 01:27N 38°02' E 023°36'0 0.0
2017-Sep-11 00:57N 38°02' E 023°36'0 0.0
2017-Sep-11 00:30N 38°02' E 023°36'0 0.0
2017-Sep-11 00:00N 38°02' E 023°36'0 0.0
2017-Sep-10 23:30N 38°02' E 023°36'0 0.0
2017-Sep-10 23:00N 38°02' E 023°36'0 0.0
2017-Sep-10 22:30N 38°02' E 023°36'0 0.0
2017-Sep-10 21:57N 38°02' E 023°36'0 0.3
2017-Sep-10 21:30N 38°02' E 023°36'0 0.3
2017-Sep-10 20:58N 38°02' E 023°36'0 0.0
2017-Sep-10 20:28N 38°02' E 023°36'0 0.0
2017-Sep-10 19:49N 38°02' E 023°36'0 0.0
2017-Sep-10 19:28N 38°02' E 023°36'0 0.0
2017-Sep-10 18:58N 38°02' E 023°36'0 0.2
2017-Sep-10 17:25N 38°01' E 023°35'0 0.7
2017-Sep-10 16:55N 38°02' E 023°36'0 0.0
2017-Sep-10 15:18N 38°02' E 023°36'0 0.0
2017-Sep-10 15:00N 38°02' E 023°36'0 0.0
2017-Sep-10 13:57N 38°02' E 023°36'0 0.0
2017-Sep-10 13:30N 38°02' E 023°36'0 0.0
2017-Sep-10 12:59N 38°02' E 023°36'0 0.0
2017-Sep-10 11:11N 38°02' E 023°36'0 1.8
2017-Sep-10 10:59N 38°01' E 023°35'0 0.2
2017-Sep-10 09:26N 38°02' E 023°36'0 0.2
2017-Sep-10 08:53N 38°02' E 023°36'0 0.0
2017-Sep-10 08:26N 38°02' E 023°36'0 0.0
2017-Sep-10 07:59N 38°02' E 023°36'0 0.5
2017-Sep-10 07:28N 38°02' E 023°35'3 6.4
2017-Sep-10 06:59N 37°59' E 023°33'2 4.6
2017-Sep-10 06:28N 37°57' E 023°35'1 2.1
2017-Sep-10 06:00N 37°56' E 023°35'0 0.4
2017-Sep-10 05:30N 37°56' E 023°35'1 2.1
2017-Sep-10 04:59N 37°57' E 023°35'0 0.1
2017-Sep-10 04:26N 37°57' E 023°35'1 1.8
2017-Sep-10 04:01N 37°57' E 023°35'2 3.3
2017-Sep-10 03:31N 37°56' E 023°37'2 3.1
2017-Sep-10 03:00N 37°57' E 023°36'1 1.6
2017-Sep-10 02:28N 37°57' E 023°35'0 0.0
2017-Sep-10 01:55N 37°57' E 023°35'4 3.8
2017-Sep-10 00:47N 38°02' E 023°36'0 0.0
2017-Sep-10 00:29N 38°02' E 023°36'0 0.0
2017-Sep-09 23:59N 38°02' E 023°36'0 0.0
2017-Sep-09 23:26N 38°02' E 023°36'0 0.0
2017-Sep-09 22:59N 38°02' E 023°36'0 0.0
2017-Sep-09 22:29N 38°02' E 023°36'0 0.0
2017-Sep-09 21:56N 38°02' E 023°36'0 0.0
2017-Sep-09 21:26N 38°02' E 023°36'0 0.0
2017-Sep-09 20:59N 38°02' E 023°36'0 0.0
2017-Sep-09 20:23N 38°02' E 023°36'0 0.0
2017-Sep-09 19:56N 38°02' E 023°36'0 0.0
2017-Sep-09 19:29N 38°02' E 023°36'  
Track history (hours):
 
Tides and Currents Weather Stations Pressure Air Temp Water Temp Dewpoint Dewpoint Depression Visibility Wind Speed Wind Dir Waves Ship Positions

Christos Vi

Last reported at 2017-Sep-19 19:05 UTC. Time now 2017-Sep-20 00:15 UTC.
Position N 38°02' E 023°30'.

Length 18 m; draft 2.5 m.

Type: Tug. MMSI: 239564600.

Date/timePositionNaut miles runAvg speedWind from/ knotsBaromVisibWave heightAir tempDewpointWater temp
2017-Sep-19 19:05N 38°02' E 023°30'0 3.7
2017-Sep-19 19:00N 38°02' E 023°30'4 8.6
2017-Sep-19 18:30N 37°58' E 023°33'2 4.0
2017-Sep-19 18:00N 37°57' E 023°35'4 8.7
2017-Sep-19 17:30N 37°53' E 023°34'2 3.4
2017-Sep-19 17:00N 37°54' E 023°35'1 2.7
2017-Sep-19 16:30N 37°55' E 023°36'2 3.3
2017-Sep-19 15:59N 37°57' E 023°35'3 5.8
2017-Sep-19 15:27N 37°60' E 023°33'2 5.0
2017-Sep-19 15:00N 38°02' E 023°34'0 0.1
2017-Sep-19 11:58N 38°02' E 023°34'1 2.3
2017-Sep-19 11:30N 38°02' E 023°36'0 0.3
2017-Sep-19 10:45N 38°01' E 023°35'0 0.7
2017-Sep-19 10:29N 38°02' E 023°35'0 0.6
2017-Sep-19 09:59N 38°02' E 023°36'0 0.0
2017-Sep-19 09:29N 38°02' E 023°36'0 0.0
2017-Sep-19 08:59N 38°02' E 023°36'0 0.0
2017-Sep-19 08:29N 38°02' E 023°36'0 0.0
2017-Sep-19 07:53N 38°02' E 023°36'0 0.0
2017-Sep-19 07:26N 38°02' E 023°36'0 0.0
2017-Sep-19 06:59N 38°02' E 023°36'0 0.0
2017-Sep-19 06:29N 38°02' E 023°36'0 0.0
2017-Sep-19 05:59N 38°02' E 023°36'0 0.0
2017-Sep-19 05:29N 38°02' E 023°36'0 0.0
2017-Sep-19 04:59N 38°02' E 023°36'0 0.0
2017-Sep-19 04:29N 38°02' E 023°36'0 0.0
2017-Sep-19 03:59N 38°02' E 023°36'0 0.0
2017-Sep-19 03:29N 38°02' E 023°36'0 0.0
2017-Sep-19 02:59N 38°02' E 023°36'0 0.0
2017-Sep-19 02:29N 38°02' E 023°36'0 0.0
2017-Sep-19 01:59N 38°02' E 023°36'0 0.0
2017-Sep-19 01:29N 38°02' E 023°36'0 0.0
2017-Sep-19 00:56N 38°02' E 023°36'0 0.0
2017-Sep-19 00:29N 38°02' E 023°36'0 0.0
2017-Sep-18 23:59N 38°02' E 023°36'0 0.0
2017-Sep-18 23:29N 38°02' E 023°36'0 0.0
2017-Sep-18 22:56N 38°02' E 023°36'0 0.0
2017-Sep-18 22:29N 38°02' E 023°36'0 0.0
2017-Sep-18 21:59N 38°02' E 023°36'0 0.1
2017-Sep-18 21:24N 38°02' E 023°36'0 0.2
2017-Sep-18 21:00N 38°02' E 023°36'0 0.0
2017-Sep-18 20:27N 38°02' E 023°36'0 0.0
2017-Sep-18 20:00N 38°02' E 023°36'0 0.0
2017-Sep-18 19:30N 38°02' E 023°36'0 0.0
2017-Sep-18 19:00N 38°02' E 023°36'0 0.1
2017-Sep-18 18:23N 38°02' E 023°36'0 0.1
2017-Sep-18 17:58N 38°02' E 023°36'0 0.0
2017-Sep-18 17:28N 38°02' E 023°36'0 0.0
2017-Sep-18 16:58N 38°02' E 023°36'0 0.0
2017-Sep-18 16:28N 38°02' E 023°36'0 0.0
2017-Sep-18 15:58N 38°02' E 023°36'0 0.0
2017-Sep-18 15:30N 38°02' E 023°36'1 1.7
2017-Sep-18 14:59N 38°01' E 023°35'1 1.8
2017-Sep-18 14:29N 38°02' E 023°36'0 0.0
2017-Sep-18 13:59N 38°02' E 023°36'0 0.0
2017-Sep-18 13:29N 38°02' E 023°36'0 0.0
2017-Sep-18 12:56N 38°02' E 023°36'0 0.0
2017-Sep-18 12:29N 38°02' E 023°36'3 5.8
2017-Sep-18 12:00N 38°02' E 023°32'0 0.0
2017-Sep-18 11:21N 38°02' E 023°32'0 0.0
2017-Sep-18 10:54N 38°02' E 023°32'0 0.0
2017-Sep-18 10:30N 38°02' E 023°32'3 5.1
2017-Sep-18 09:58N 38°02' E 023°36'0 0.1
2017-Sep-18 09:25N 38°02' E 023°36'0 0.0
2017-Sep-18 08:58N 38°02' E 023°36'0 0.0
2017-Sep-18 08:28N 38°02' E 023°36'0 0.0
2017-Sep-18 07:58N 38°02' E 023°36'0 0.0
2017-Sep-18 07:28N 38°02' E 023°36'0 0.0
2017-Sep-18 06:58N 38°02' E 023°36'0 0.0
2017-Sep-18 06:28N 38°02' E 023°36'0 0.0
2017-Sep-18 05:55N 38°02' E 023°36'0 0.0
2017-Sep-18 05:25N 38°02' E 023°36'0 0.0
2017-Sep-18 04:58N 38°02' E 023°36'0 0.0
2017-Sep-18 04:28N 38°02' E 023°36'0 0.0
2017-Sep-18 03:58N 38°02' E 023°36'0 0.0
2017-Sep-18 03:25N 38°02' E 023°36'0 0.0
2017-Sep-18 02:58N 38°02' E 023°36'0 0.0
2017-Sep-18 02:28N 38°02' E 023°36'0 0.0
2017-Sep-18 01:58N 38°02' E 023°36'0 0.0
2017-Sep-18 01:22N 38°02' E 023°36'0 0.0
2017-Sep-18 00:58N 38°02' E 023°36'0 0.0
2017-Sep-18 00:25N 38°02' E 023°36'0 0.0
2017-Sep-17 23:58N 38°02' E 023°36'0 0.0
2017-Sep-17 23:28N 38°02' E 023°36'0 0.0
2017-Sep-17 22:58N 38°02' E 023°36'0 0.0
2017-Sep-17 22:25N 38°02' E 023°36'0 0.1
2017-Sep-17 21:57N 38°02' E 023°36'0 0.1
2017-Sep-17 21:30N 38°02' E 023°36'0 0.0
2017-Sep-17 20:59N 38°02' E 023°36'0 0.0
2017-Sep-17 20:30N 38°02' E 023°36'0 0.0
2017-Sep-17 19:59N 38°02' E 023°36'0 0.0
2017-Sep-17 19:27N 38°02' E 023°36'0 0.0
2017-Sep-17 19:00N 38°02' E 023°36'0 0.0
2017-Sep-17 18:27N 38°02' E 023°36'0 0.0
2017-Sep-17 17:54N 38°02' E 023°36'0 0.0
2017-Sep-17 17:30N 38°02' E 023°36'0 0.0
2017-Sep-17 16:56N 38°02' E 023°36'0 0.0
2017-Sep-17 16:29N 38°02' E 023°36'0 0.2
2017-Sep-17 15:54N 38°02' E 023°36'0 0.3
2017-Sep-17 15:25N 38°02' E 023°36'0 0.0
2017-Sep-17 14:58N 38°02' E 023°36'0 0.0
2017-Sep-17 14:28N 38°02' E 023°36'0 0.0
2017-Sep-17 13:55N 38°02' E 023°36'0 0.0
2017-Sep-17 13:28N 38°02' E 023°36'0 0.0
2017-Sep-17 12:58N 38°02' E 023°36'0 0.0
2017-Sep-17 12:28N 38°02' E 023°36'0 0.0
2017-Sep-17 11:52N 38°02' E 023°36'0 0.0
2017-Sep-17 11:25N 38°02' E 023°36'0 0.0
2017-Sep-17 10:55N 38°02' E 023°36'0 0.0
2017-Sep-17 10:28N 38°02' E 023°36'0 0.0
2017-Sep-17 09:58N 38°02' E 023°36'0 0.0
2017-Sep-17 09:28N 38°02' E 023°36'0 0.0
2017-Sep-17 08:58N 38°02' E 023°36'0 0.0
2017-Sep-17 08:28N 38°02' E 023°36'0 0.0
2017-Sep-17 07:58N 38°02' E 023°36'0 0.0
2017-Sep-17 07:28N 38°02' E 023°36'0 0.0
2017-Sep-17 06:58N 38°02' E 023°36'0 0.0
2017-Sep-17 06:22N 38°02' E 023°36'0 0.0
2017-Sep-17 05:58N 38°02' E 023°36'0 0.0
2017-Sep-17 05:28N 38°02' E 023°36'0 0.0
2017-Sep-17 04:58N 38°02' E 023°36'0 0.0
2017-Sep-17 04:28N 38°02' E 023°36'0 0.0
2017-Sep-17 03:55N 38°02' E 023°36'0 0.0
2017-Sep-17 03:28N 38°02' E 023°36'0 0.0
2017-Sep-17 02:58N 38°02' E 023°36'0 0.0
2017-Sep-17 02:28N 38°02' E 023°36'0 0.0
2017-Sep-17 01:58N 38°02' E 023°36'0 0.0
2017-Sep-17 01:28N 38°02' E 023°36'0 0.0
2017-Sep-17 00:58N 38°02' E 023°36'0 0.0
2017-Sep-17 00:25N 38°02' E 023°36'0 0.0
2017-Sep-16 23:58N 38°02' E 023°36'0 0.0
2017-Sep-16 23:28N 38°02' E 023°36'0 0.0
2017-Sep-16 22:58N 38°02' E 023°36'0 0.7
2017-Sep-16 22:26N 38°02' E 023°35'0 0.7
2017-Sep-16 21:56N 38°02' E 023°36'0 0.2
2017-Sep-16 21:30N 38°02' E 023°36'0 0.2
2017-Sep-16 21:00N 38°02' E 023°36'0 0.0
2017-Sep-16 20:30N 38°02' E 023°36'0 0.0
2017-Sep-16 20:00N 38°02' E 023°36'0 0.0
2017-Sep-16 19:30N 38°02' E 023°36'0 0.0
2017-Sep-16 18:57N 38°02' E 023°36'0 0.0
2017-Sep-16 18:30N 38°02' E 023°36'0 0.0
2017-Sep-16 18:00N 38°02' E 023°36'0 0.0
2017-Sep-16 17:30N 38°02' E 023°36'0 0.0
2017-Sep-16 13:58N 38°02' E 023°36'0 0.0
2017-Sep-16 13:25N 38°02' E 023°36'0 0.0
2017-Sep-16 12:55N 38°02' E 023°36'0 0.0
2017-Sep-16 12:28N 38°02' E 023°36'0 0.0
2017-Sep-16 11:52N 38°02' E 023°36'0 0.0
2017-Sep-16 11:28N 38°02' E 023°36'0 0.0
2017-Sep-16 10:58N 38°02' E 023°36'0 0.0
2017-Sep-16 10:25N 38°02' E 023°36'0 0.0
2017-Sep-16 09:58N 38°02' E 023°36'0 0.0
2017-Sep-16 09:28N 38°02' E 023°36'0 0.0
2017-Sep-16 08:55N 38°02' E 023°36'0 0.0
2017-Sep-16 08:28N 38°02' E 023°36'0 0.0
2017-Sep-16 08:00N 38°02' E 023°36'0 0.8
2017-Sep-16 07:21N 38°01' E 023°35'0 1.4
2017-Sep-16 07:00N 38°02' E 023°36'0 0.1
2017-Sep-16 06:30N 38°02' E 023°36'0 0.0
2017-Sep-16 06:00N 38°02' E 023°36'0 0.0
2017-Sep-16 05:30N 38°02' E 023°36'0 0.0
2017-Sep-16 04:57N 38°02' E 023°36'0 0.0
2017-Sep-16 04:27N 38°02' E 023°36'0 0.0
2017-Sep-16 03:51N 38°02' E 023°36'0 0.0
2017-Sep-16 03:30N 38°02' E 023°36'0 0.0
2017-Sep-16 03:00N 38°02' E 023°36'0 0.0
2017-Sep-16 02:30N 38°02' E 023°36'0 0.0
2017-Sep-16 02:00N 38°02' E 023°36'0 0.0
2017-Sep-16 01:30N 38°02' E 023°36'0 0.0
2017-Sep-16 01:00N 38°02' E 023°36'0 0.0
2017-Sep-16 00:30N 38°02' E 023°36'0 0.0
2017-Sep-16 00:00N 38°02' E 023°36'0 0.0
2017-Sep-15 23:30N 38°02' E 023°36'0 0.0
2017-Sep-15 23:00N 38°02' E 023°36'0 0.0
2017-Sep-15 22:30N 38°02' E 023°36'0 0.0
2017-Sep-15 22:00N 38°02' E 023°36'0 0.0
2017-Sep-15 21:30N 38°02' E 023°36'0 0.0
2017-Sep-15 21:00N 38°02' E 023°36'0 0.0
2017-Sep-15 20:30N 38°02' E 023°36'0 0.0
2017-Sep-15 20:00N 38°02' E 023°36'0 0.0
2017-Sep-15 19:27N 38°02' E 023°36'0 0.0
2017-Sep-15 19:00N 38°02' E 023°36'0 0.0
2017-Sep-15 18:30N 38°02' E 023°36'0 0.4
2017-Sep-15 17:56N 38°02' E 023°35'0 0.5
2017-Sep-15 17:30N 38°02' E 023°36'0 0.0
2017-Sep-15 16:57N 38°02' E 023°36'0 0.2
2017-Sep-15 16:29N 38°02' E 023°36'0 0.1
2017-Sep-15 15:50N 38°02' E 023°36'0 0.0
2017-Sep-15 15:26N 38°02' E 023°36'0 0.0
2017-Sep-15 14:59N 38°02' E 023°36'0 0.0
2017-Sep-15 14:29N 38°02' E 023°36'0 0.0
2017-Sep-15 13:56N 38°02' E 023°36'0 0.0
2017-Sep-15 13:29N 38°02' E 023°36'0 0.0
2017-Sep-15 12:56N 38°02' E 023°36'0 0.1
2017-Sep-15 12:23N 38°02' E 023°36'0 0.1
2017-Sep-15 11:55N 38°02' E 023°36'0 0.0
2017-Sep-15 11:22N 38°02' E 023°36'0 0.0
2017-Sep-15 10:52N 38°02' E 023°36'0 0.0
2017-Sep-15 10:30N 38°02' E 023°36'0 0.0
2017-Sep-15 10:00N 38°02' E 023°36'0 0.0
2017-Sep-15 09:30N 38°02' E 023°36'0 0.0
2017-Sep-15 09:00N 38°02' E 023°36'0 0.0
2017-Sep-15 08:30N 38°02' E 023°36'0 0.0
2017-Sep-15 08:00N 38°02' E 023°36'0 0.0
2017-Sep-15 07:30N 38°02' E 023°36'0 0.0
2017-Sep-15 07:00N 38°02' E 023°36'0 0.0
2017-Sep-15 06:30N 38°02' E 023°36'0 0.0
2017-Sep-15 05:57N 38°02' E 023°36'0 0.6
2017-Sep-15 05:30N 38°02' E 023°35'0 0.0
2017-Sep-14 19:16N 38°02' E 023°36'0 0.0
2017-Sep-14 18:52N 38°02' E 023°36'0 0.0
2017-Sep-14 18:22N 38°02' E 023°36'0 0.0
2017-Sep-14 17:58N 38°02' E 023°36'0 0.0
2017-Sep-14 14:18N 38°02' E 023°36'0 0.2
2017-Sep-14 14:00N 38°02' E 023°36'0 0.9
2017-Sep-14 13:30N 38°02' E 023°35'4 6.2
2017-Sep-14 12:53N 38°02' E 023°30'0 0.5
2017-Sep-14 12:22N 38°02' E 023°31'0 0.2
2017-Sep-14 12:00N 38°02' E 023°31'0 0.3
2017-Sep-14 11:30N 38°02' E 023°31'0 0.7
2017-Sep-14 10:50N 38°02' E 023°30'0 0.0
2017-Sep-14 10:26N 38°02' E 023°30'0 0.0
2017-Sep-14 09:29N 38°02' E 023°30'0 0.4
2017-Sep-14 08:59N 38°02' E 023°31'2 4.6
2017-Sep-14 08:29N 38°02' E 023°33'2 3.8
2017-Sep-14 07:59N 38°02' E 023°36'0 0.0
2017-Sep-14 07:26N 38°02' E 023°36'0 0.0
2017-Sep-14 06:59N 38°02' E 023°36'0 0.0
2017-Sep-14 06:29N 38°02' E 023°36'0 0.0
2017-Sep-14 05:59N 38°02' E 023°36'4 0.3
2017-Sep-13 15:24N 37°58' E 023°35'2 2.0
2017-Sep-13 14:26N 37°56' E 023°37'4 7.6
2017-Sep-13 13:52N 37°60' E 023°33'3 5.3
2017-Sep-13 13:21N 38°02' E 023°36'3 9.4
2017-Sep-13 13:00N 38°02' E 023°31'1 1.5
2017-Sep-13 12:30N 38°02' E 023°31'0 0.7
2017-Sep-13 12:00N 38°02' E 023°30'0 0.4
2017-Sep-13 11:30N 38°02' E 023°31'1 0.4
2017-Sep-13 10:18N 38°02' E 023°30'0 0.0
2017-Sep-13 09:54N 38°02' E 023°30'0 0.0
2017-Sep-13 09:11N 38°02' E 023°30'0 1.2
2017-Sep-13 08:56N 38°02' E 023°31'1 2.0
2017-Sep-13 08:30N 38°02' E 023°31'3 6.1
2017-Sep-13 07:57N 38°02' E 023°36'0 0.0
2017-Sep-12 21:59N 38°02' E 023°36'0 0.0
2017-Sep-12 21:29N 38°02' E 023°36'0 0.0
2017-Sep-12 20:59N 38°02' E 023°36'0 0.0
2017-Sep-12 20:29N 38°02' E 023°36'0 0.0
2017-Sep-12 19:59N 38°02' E 023°36'0 0.0
2017-Sep-12 19:23N 38°02' E 023°36'0 0.0
2017-Sep-12 18:53N 38°02' E 023°36'0 0.0
2017-Sep-12 18:26N 38°02' E 023°36'0 0.0
2017-Sep-12 17:44N 38°02' E 023°36'0 0.0
2017-Sep-12 17:02N 38°02' E 023°36'0 0.0
2017-Sep-12 16:59N 38°02' E 023°36'0 0.0
2017-Sep-12 16:29N 38°02' E 023°36'0 0.0
2017-Sep-12 15:59N 38°02' E 023°36'0 0.0
2017-Sep-12 13:32N 38°02' E 023°36'0 0.0
2017-Sep-12 12:50N 38°02' E 023°36'0 0.0
2017-Sep-12 12:30N 38°02' E 023°36'0 0.0
2017-Sep-12 12:00N 38°02' E 023°36'0 0.0
2017-Sep-12 11:22N 38°02' E 023°36'0 0.0
2017-Sep-12 11:01N 38°02' E 023°36'0 0.0
2017-Sep-12 10:28N 38°02' E 023°36'0 0.0
2017-Sep-12 10:01N 38°02' E 023°36'0 0.0
2017-Sep-12 09:16N 38°02' E 023°36'0 0.4
2017-Sep-12 09:00N 38°02' E 023°36'0 0.1
2017-Sep-12 08:24N 38°02' E 023°36'0 0.1
2017-Sep-12 07:58N 38°02' E 023°36'0 0.0
2017-Sep-12 07:28N 38°02' E 023°36'0 0.0
2017-Sep-12 06:58N 38°02' E 023°36'0 0.0
2017-Sep-12 06:28N 38°02' E 023°36'0 0.0
2017-Sep-12 05:55N 38°02' E 023°36'0 0.2
2017-Sep-12 05:29N 38°02' E 023°36'0 0.1
2017-Sep-12 05:00N 38°02' E 023°36'0 0.0
2017-Sep-12 04:30N 38°02' E 023°36'0 0.0
2017-Sep-12 03:57N 38°02' E 023°36'0 0.0
2017-Sep-12 03:24N 38°02' E 023°36'0 0.0
2017-Sep-12 02:54N 38°02' E 023°36'0 0.0
2017-Sep-12 02:30N 38°02' E 023°36'0 0.0
2017-Sep-12 02:00N 38°02' E 023°36'0 0.0
2017-Sep-12 01:30N 38°02' E 023°36'0 0.0
2017-Sep-12 01:00N 38°02' E 023°36'0 0.0
2017-Sep-12 00:30N 38°02' E 023°36'0 0.0
2017-Sep-12 00:00N 38°02' E 023°36'0 0.0
2017-Sep-11 23:27N 38°02' E 023°36'0 0.0
2017-Sep-11 23:00N 38°02' E 023°36'0 0.0
2017-Sep-11 22:27N 38°02' E 023°36'0 0.0
2017-Sep-11 21:54N 38°02' E 023°36'0 0.0
2017-Sep-11 21:24N 38°02' E 023°36'0 0.0
2017-Sep-11 21:00N 38°02' E 023°36'0 0.0
2017-Sep-11 20:30N 38°02' E 023°36'0 0.1
2017-Sep-11 19:59N 38°02' E 023°36'0 0.1
2017-Sep-11 19:29N 38°02' E 023°36'0 0.0
2017-Sep-11 18:59N 38°02' E 023°36'0 0.0
2017-Sep-11 18:26N 38°02' E 023°36'0 0.0
2017-Sep-11 17:56N 38°02' E 023°36'0 0.0
2017-Sep-11 17:29N 38°02' E 023°36'0 0.0
2017-Sep-11 16:47N 38°02' E 023°36'0 0.7
2017-Sep-11 16:29N 38°02' E 023°35'0 0.4
2017-Sep-11 16:00N 38°02' E 023°36'0 0.0
2017-Sep-11 15:20N 38°02' E 023°36'0 0.8
2017-Sep-11 14:55N 38°01' E 023°36'0 0.8
2017-Sep-11 14:30N 38°02' E 023°36'0 0.0
2017-Sep-11 13:24N 38°02' E 023°36'0 0.0
2017-Sep-11 12:57N 38°02' E 023°36'0 0.0
2017-Sep-11 12:00N 38°02' E 023°36'0 0.0
2017-Sep-11 11:27N 38°02' E 023°36'0 0.0
2017-Sep-11 10:54N 38°02' E 023°36'0 0.0
2017-Sep-11 10:30N 38°02' E 023°36'0 0.0
2017-Sep-11 09:54N 38°02' E 023°36'0 0.0
2017-Sep-11 09:27N 38°02' E 023°36'0 0.0
2017-Sep-11 09:00N 38°02' E 023°36'0 0.0
2017-Sep-11 08:30N 38°02' E 023°36'0 0.0
2017-Sep-11 08:00N 38°02' E 023°36'0 0.0
2017-Sep-11 07:30N 38°02' E 023°36'0 0.0
2017-Sep-11 07:00N 38°02' E 023°36'0 0.0
2017-Sep-11 06:27N 38°02' E 023°36'0 0.0
2017-Sep-11 05:54N 38°02' E 023°36'0 0.0
2017-Sep-11 05:30N 38°02' E 023°36'0 0.0
2017-Sep-11 05:00N 38°02' E 023°36'0 0.0
2017-Sep-11 04:30N 38°02' E 023°36'0 0.0
2017-Sep-11 04:00N 38°02' E 023°36'0 0.0
2017-Sep-11 03:30N 38°02' E 023°36'0 0.0
2017-Sep-11 03:00N 38°02' E 023°36'0 0.0
2017-Sep-11 02:30N 38°02' E 023°36'0 0.0
2017-Sep-11 02:00N 38°02' E 023°36'0 0.0
2017-Sep-11 01:27N 38°02' E 023°36'0 0.0
2017-Sep-11 00:57N 38°02' E 023°36'0 0.0
2017-Sep-11 00:30N 38°02' E 023°36'0 0.0
2017-Sep-11 00:00N 38°02' E 023°36'0 0.0
2017-Sep-10 23:30N 38°02' E 023°36'0 0.0
2017-Sep-10 23:00N 38°02' E 023°36'0 0.0
2017-Sep-10 22:30N 38°02' E 023°36'0 0.0
2017-Sep-10 21:57N 38°02' E 023°36'0 0.3
2017-Sep-10 21:30N 38°02' E 023°36'0 0.3
2017-Sep-10 20:58N 38°02' E 023°36'0 0.0
2017-Sep-10 20:28N 38°02' E 023°36'0 0.0
2017-Sep-10 19:49N 38°02' E 023°36'0 0.0
2017-Sep-10 19:28N 38°02' E 023°36'0 0.0
2017-Sep-10 18:58N 38°02' E 023°36'0 0.2
2017-Sep-10 17:25N 38°01' E 023°35'0 0.7
2017-Sep-10 16:55N 38°02' E 023°36'0 0.0
2017-Sep-10 15:18N 38°02' E 023°36'0 0.0
2017-Sep-10 15:00N 38°02' E 023°36'0 0.0
2017-Sep-10 13:57N 38°02' E 023°36'0 0.0
2017-Sep-10 13:30N 38°02' E 023°36'0 0.0
2017-Sep-10 12:59N 38°02' E 023°36'0 0.0
2017-Sep-10 11:11N 38°02' E 023°36'0 1.8
2017-Sep-10 10:59N 38°01' E 023°35'0 0.2
2017-Sep-10 09:26N 38°02' E 023°36'0 0.2
2017-Sep-10 08:53N 38°02' E 023°36'0 0.0
2017-Sep-10 08:26N 38°02' E 023°36'0 0.0
2017-Sep-10 07:59N 38°02' E 023°36'0 0.5
2017-Sep-10 07:28N 38°02' E 023°35'3 6.4
2017-Sep-10 06:59N 37°59' E 023°33'2 4.6
2017-Sep-10 06:28N 37°57' E 023°35'1 2.1
2017-Sep-10 06:00N 37°56' E 023°35'0 0.4
2017-Sep-10 05:30N 37°56' E 023°35'1 2.1
2017-Sep-10 04:59N 37°57' E 023°35'0 0.1
2017-Sep-10 04:26N 37°57' E 023°35'1 1.8
2017-Sep-10 04:01N 37°57' E 023°35'2 3.3
2017-Sep-10 03:31N 37°56' E 023°37'2 3.1
2017-Sep-10 03:00N 37°57' E 023°36'1 1.6
2017-Sep-10 02:28N 37°57' E 023°35'0 0.0
2017-Sep-10 01:55N 37°57' E 023°35'4 3.8
2017-Sep-10 00:47N 38°02' E 023°36'0 0.0
2017-Sep-10 00:29N 38°02' E 023°36'0 0.0
2017-Sep-09 23:59N 38°02' E 023°36'0 0.0
2017-Sep-09 23:26N 38°02' E 023°36'0 0.0
2017-Sep-09 22:59N 38°02' E 023°36'0 0.0
2017-Sep-09 22:29N 38°02' E 023°36'0 0.0
2017-Sep-09 21:56N 38°02' E 023°36'0 0.0
2017-Sep-09 21:26N 38°02' E 023°36'0 0.0
2017-Sep-09 20:59N 38°02' E 023°36'0 0.0
2017-Sep-09 20:23N 38°02' E 023°36'0 0.0
2017-Sep-09 19:56N 38°02' E 023°36'0 0.0
2017-Sep-09 19:29N 38°02' E 023°36'  

Dump ship's entire track history